Terminal Aerodrome Forecast
Issued by NWS Charleston, WV

Current Version | Previous Version | Graphics & Text | Print | Product List | Glossary On
Versions: 1 2 3 4 5 6 7 8 9 10 11 12 13 14 15 16 17 18 19 20 21 22 23 24 25 26 27 28 29 30
587
FTUS41 KRLX 050549
TAFBKW
TAF
KBKW 050549Z 0506/0606 19007KT 4SM -RA OVC008
      TEMPO 0506/0508 6SM -RA BR OVC006
     FM050800 26005KT 4SM BR OVC008
     FM051100 30006KT P6SM OVC008
     FM051700 33005KT P6SM BKN025
     FM051900 35004KT P6SM BKN035
     FM052100 VRB03KT P6SM SCT200
     FM060500 14006KT P6SM OVC110=

USA.gov is the U.S. government's official web portal to all federal, state and local government web resources and services.